createdAt,value
2022-09-07T00:01:51.476Z,13.70
2022-09-07T00:04:27.248Z,13.69
2022-09-07T00:07:06.815Z,13.67
2022-09-07T00:09:50.074Z,13.61
2022-09-07T00:12:22.023Z,13.59
2022-09-07T00:14:50.820Z,13.59
2022-09-07T00:17:39.971Z,13.58
2022-09-07T00:21:04.281Z,13.56
2022-09-07T00:24:28.569Z,13.51
2022-09-07T00:28:01.534Z,13.50
2022-09-07T00:30:43.157Z,13.50
2022-09-07T00:33:54.957Z,13.47
2022-09-07T00:36:34.961Z,13.45
2022-09-07T00:39:51.445Z,13.43
2022-09-07T00:42:45.825Z,13.41
2022-09-07T00:50:14.271Z,13.35
2022-09-07T00:53:55.622Z,13.29
2022-09-07T00:56:39.112Z,13.28
2022-09-07T00:59:50.298Z,13.27
2022-09-07T01:02:41.343Z,13.25
2022-09-07T01:05:56.245Z,13.27
2022-09-07T01:09:13.095Z,13.26
2022-09-07T01:12:03.157Z,13.21
2022-09-07T01:14:44.465Z,13.18
2022-09-07T01:17:54.597Z,13.18
2022-09-07T01:21:35.643Z,13.18
2022-09-07T01:25:36.603Z,13.19
2022-09-07T01:29:01.848Z,13.19
2022-09-07T01:32:24.402Z,13.20
2022-09-07T01:40:26.160Z,13.18
2022-09-07T01:43:11.591Z,13.16
2022-09-07T01:45:45.881Z,13.14
2022-09-07T01:48:19.371Z,13.11
2022-09-07T01:50:57.603Z,13.07
2022-09-07T01:53:51.351Z,13.03
2022-09-07T01:56:54.376Z,13.00
2022-09-07T01:59:33.537Z,12.97
2022-09-07T02:02:48.514Z,12.94
2022-09-07T02:05:51.571Z,12.94
2022-09-07T02:08:48.383Z,12.92
2022-09-07T02:11:44.975Z,12.91
2022-09-07T02:15:20.298Z,12.84
2022-09-07T02:18:52.510Z,12.82
2022-09-07T02:22:21.759Z,12.78
2022-09-07T02:26:03.256Z,12.69
2022-09-07T02:29:30.340Z,12.60
2022-09-07T02:32:31.565Z,12.53
2022-09-07T02:35:54.930Z,12.45
2022-09-07T02:38:30.310Z,12.40
2022-09-07T02:42:01.714Z,12.36
2022-09-07T02:45:01.884Z,12.27
2022-09-07T02:47:46.782Z,12.20
2022-09-07T02:50:39.778Z,12.18
2022-09-07T02:54:13.019Z,12.16
2022-09-07T02:57:12.325Z,12.21
2022-09-07T03:00:43.010Z,12.19
2022-09-07T03:03:57.359Z,12.16
2022-09-07T03:06:50.445Z,12.12
2022-09-07T03:09:40.059Z,12.09
2022-09-07T03:12:52.355Z,12.07
2022-09-07T03:16:08.651Z,12.09
2022-09-07T03:19:03.853Z,12.11
2022-09-07T03:22:43.309Z,12.04
2022-09-07T03:25:18.730Z,12.04
2022-09-07T03:27:57.223Z,12.04
2022-09-07T03:30:26.527Z,12.03
2022-09-07T03:33:16.764Z,12.02
2022-09-07T03:36:08.227Z,11.98
2022-09-07T03:38:40.016Z,11.98
2022-09-07T03:41:15.294Z,11.97
2022-09-07T03:44:13.523Z,11.93
2022-09-07T03:47:00.219Z,11.90
2022-09-07T03:49:32.193Z,11.90
2022-09-07T03:52:37.849Z,11.86
2022-09-07T04:08:51.791Z,11.77
2022-09-07T04:21:01.267Z,11.69
2022-09-07T04:23:45.522Z,11.68
2022-09-07T04:26:37.176Z,11.69
2022-09-07T04:29:09.500Z,11.68
2022-09-07T04:32:25.680Z,11.66
2022-09-07T04:35:57.383Z,11.66
2022-09-07T04:40:11.768Z,11.61
2022-09-07T04:43:18.147Z,11.60
2022-09-07T04:46:44.785Z,11.61
2022-09-07T04:49:54.869Z,11.59
2022-09-07T04:53:06.156Z,11.55
2022-09-07T04:55:38.640Z,11.56
2022-09-07T04:58:44.702Z,11.57
2022-09-07T05:01:30.878Z,11.56
2022-09-07T05:04:27.716Z,11.58
2022-09-07T05:08:13.193Z,11.59
2022-09-07T05:12:13.666Z,11.63
2022-09-07T05:15:18.964Z,11.65
2022-09-07T05:18:02.385Z,11.69
2022-09-07T05:20:39.113Z,11.76
2022-09-07T05:23:10.301Z,11.81
2022-09-07T05:32:09.791Z,11.94
2022-09-07T05:34:44.471Z,11.99
2022-09-07T05:37:13.356Z,12.04
2022-09-07T05:39:44.321Z,12.09
2022-09-07T05:42:12.605Z,12.15
2022-09-07T05:44:53.030Z,12.19
2022-09-07T06:03:58.444Z,12.89
2022-09-07T06:06:39.184Z,13.04
2022-09-07T06:09:17.089Z,13.19
2022-09-07T06:11:46.130Z,13.40
2022-09-07T06:14:14.738Z,13.58
2022-09-07T06:16:43.865Z,13.83
2022-09-07T06:19:23.579Z,14.00
2022-09-07T06:21:56.114Z,14.07
2022-09-07T06:24:53.111Z,14.26
2022-09-07T06:27:36.844Z,14.61
2022-09-07T06:30:20.369Z,14.86
2022-09-07T06:32:55.641Z,15.05
2022-09-07T06:35:44.424Z,15.23
2022-09-07T06:38:32.615Z,15.27
2022-09-07T06:44:25.854Z,15.54
2022-09-07T06:49:35.964Z,15.75
2022-09-07T06:52:10.183Z,15.80
2022-09-07T06:55:14.235Z,16.04
2022-09-07T06:58:11.718Z,16.28
2022-09-07T07:00:47.969Z,16.38
2022-09-07T07:03:20.915Z,16.55
2022-09-07T07:05:57.566Z,16.74
2022-09-07T07:09:01.876Z,17.08
2022-09-07T07:11:31.647Z,17.36
2022-09-07T07:14:22.283Z,17.42
2022-09-07T07:17:19.023Z,17.21
2022-09-07T07:20:33.095Z,17.09
2022-09-07T07:23:46.798Z,17.06
2022-09-07T07:26:32.040Z,16.98
2022-09-07T07:29:25.143Z,16.93
2022-09-07T07:32:31.311Z,16.85
2022-09-07T07:35:09.321Z,17.04
2022-09-07T07:37:48.683Z,17.24
2022-09-07T07:40:31.002Z,17.46
2022-09-07T07:43:19.275Z,17.49
2022-09-07T07:45:55.507Z,17.39
2022-09-07T07:48:48.113Z,17.43
2022-09-07T07:51:17.031Z,17.53
2022-09-07T07:54:12.405Z,17.94
2022-09-07T07:56:49.542Z,18.19
2022-09-07T07:59:18.105Z,18.25
2022-09-07T08:01:53.185Z,18.36
2022-09-07T08:04:28.237Z,18.63
2022-09-07T08:07:14.754Z,18.92
2022-09-07T08:09:51.117Z,19.17
2022-09-07T08:12:20.709Z,19.14
2022-09-07T08:14:49.641Z,19.12
2022-09-07T08:17:18.410Z,19.20
2022-09-07T08:19:57.881Z,19.06
2022-09-07T08:23:13.342Z,18.99
2022-09-07T08:25:55.235Z,19.10
2022-09-07T08:28:30.900Z,19.21
2022-09-07T08:31:10.965Z,19.43
2022-09-07T08:33:45.716Z,19.57
2022-09-07T08:36:17.933Z,19.68
2022-09-07T08:38:56.596Z,19.90
2022-09-07T08:42:17.198Z,19.86
2022-09-07T08:45:01.248Z,19.85
2022-09-07T08:47:54.042Z,19.93
2022-09-07T08:50:42.062Z,19.84
2022-09-07T08:53:38.127Z,20.03
2022-09-07T08:56:33.590Z,20.24
2022-09-07T08:59:20.274Z,20.31
2022-09-07T09:06:00.401Z,20.52
2022-09-07T09:09:07.500Z,20.71
2022-09-07T09:12:10.397Z,20.82
2022-09-07T09:15:31.193Z,20.83
2022-09-07T09:18:29.263Z,21.07
2022-09-07T09:21:02.452Z,21.31
2022-09-07T09:23:46.027Z,21.24
2022-09-07T09:26:56.257Z,21.17
2022-09-07T09:29:36.253Z,21.01
2022-09-07T09:32:42.008Z,20.95
2022-09-07T09:35:23.994Z,21.14
2022-09-07T09:38:06.040Z,21.26
2022-09-07T09:41:06.879Z,21.40
2022-09-07T09:44:16.773Z,21.57
2022-09-07T09:47:31.248Z,21.79
2022-09-07T09:54:07.789Z,22.35
2022-09-07T09:56:45.625Z,22.46
2022-09-07T10:00:00.329Z,22.46
2022-09-07T10:06:29.749Z,22.53
2022-09-07T10:09:58.103Z,22.40
2022-09-07T10:13:11.790Z,22.28
2022-09-07T10:16:02.044Z,22.35
2022-09-07T10:19:21.654Z,22.61
2022-09-07T10:22:43.693Z,22.89
2022-09-07T10:25:59.310Z,22.96
2022-09-07T10:29:11.935Z,23.11
2022-09-07T10:32:32.197Z,23.20
2022-09-07T10:35:19.284Z,23.20
2022-09-07T10:38:37.713Z,22.88
2022-09-07T10:41:17.543Z,22.67
2022-09-07T10:43:57.386Z,22.91
2022-09-07T10:47:07.717Z,23.28
2022-09-07T10:50:22.434Z,23.83
2022-09-07T10:57:43.629Z,24.27
2022-09-07T11:00:27.839Z,24.26
2022-09-07T11:03:32.724Z,24.24
2022-09-07T11:06:43.831Z,24.14
2022-09-07T11:10:25.057Z,23.68
2022-09-07T11:13:26.706Z,23.61
2022-09-07T11:17:01.136Z,24.01
2022-09-07T11:19:55.185Z,24.47
2022-09-07T11:23:01.218Z,24.50
2022-09-07T11:26:12.660Z,24.33
2022-09-07T11:32:18.864Z,24.24
2022-09-07T11:35:14.362Z,24.00
2022-09-07T11:38:30.599Z,23.82
2022-09-07T11:41:52.967Z,23.68
2022-09-07T11:44:35.827Z,23.64
2022-09-07T11:47:13.749Z,23.73
2022-09-07T11:49:59.326Z,23.85
2022-09-07T11:52:53.533Z,23.89
2022-09-07T11:55:49.984Z,24.04
2022-09-07T11:58:38.378Z,24.04
2022-09-07T12:01:48.207Z,24.24
2022-09-07T12:04:56.540Z,24.48
2022-09-07T12:07:50.288Z,24.94
2022-09-07T12:10:55.148Z,25.21
2022-09-07T12:13:55.885Z,25.42
2022-09-07T12:16:59.339Z,25.55
2022-09-07T12:19:33.871Z,25.27
2022-09-07T12:22:08.620Z,25.03
2022-09-07T12:24:52.908Z,24.78
2022-09-07T12:27:25.787Z,24.69
2022-09-07T12:29:58.277Z,24.93
2022-09-07T12:33:06.485Z,24.98
2022-09-07T12:35:48.974Z,25.03
2022-09-07T12:39:05.753Z,24.85
2022-09-07T12:45:58.436Z,24.21
2022-09-07T12:49:16.785Z,24.22
2022-09-07T12:52:39.970Z,24.29
2022-09-07T12:59:20.893Z,24.40
2022-09-07T13:03:56.642Z,24.28
2022-09-07T13:53:25.677Z,26.44
2022-09-07T13:56:09.026Z,26.67
2022-09-07T13:58:47.171Z,26.56
2022-09-07T14:01:22.947Z,26.24
2022-09-07T14:04:12.193Z,26.02
2022-09-07T14:06:43.565Z,25.98
2022-09-07T14:09:19.308Z,25.85
2022-09-07T14:11:55.564Z,26.06
2022-09-07T14:14:33.560Z,26.33
2022-09-07T14:17:14.769Z,26.55
2022-09-07T14:19:49.409Z,26.40
2022-09-07T14:22:37.609Z,26.26
2022-09-07T14:25:23.753Z,26.18
2022-09-07T14:27:58.253Z,26.08
2022-09-07T14:30:35.318Z,25.73
2022-09-07T14:33:23.840Z,25.47
2022-09-07T14:36:23.201Z,25.22
2022-09-07T14:39:04.561Z,25.20
2022-09-07T14:41:38.910Z,24.85
2022-09-07T14:44:08.980Z,24.61
2022-09-07T14:46:45.782Z,24.49
2022-09-07T14:49:23.475Z,24.39
2022-09-07T14:51:57.538Z,24.20
2022-09-07T14:54:36.967Z,24.10
2022-09-07T14:57:11.254Z,24.00
2022-09-07T14:59:45.847Z,23.90
2022-09-07T15:02:26.406Z,23.78
2022-09-07T15:05:15.745Z,23.66
2022-09-07T15:07:52.645Z,23.61
2022-09-07T15:11:33.006Z,23.58
2022-09-07T15:13:40.991Z,23.58
2022-09-07T15:16:31.508Z,23.52
2022-09-07T15:19:31.903Z,23.48
2022-09-07T15:22:10.868Z,23.45
2022-09-07T15:25:11.775Z,23.43
2022-09-07T15:27:54.259Z,23.38
2022-09-07T15:30:29.093Z,23.30
2022-09-07T15:33:23.053Z,23.17
2022-09-07T15:36:07.125Z,23.06
2022-09-07T15:41:39.447Z,22.95
2022-09-07T15:44:28.329Z,22.89
2022-09-07T15:50:11.780Z,22.80
2022-09-07T15:52:46.451Z,22.81
2022-09-07T15:55:30.155Z,22.78
2022-09-07T15:58:42.544Z,22.77
2022-09-07T16:04:16.058Z,22.77
2022-09-07T16:07:05.456Z,22.74
2022-09-07T16:09:52.540Z,22.67
2022-09-07T16:16:15.730Z,22.55
2022-09-07T16:19:01.957Z,22.51
2022-09-07T16:21:58.216Z,22.44
2022-09-07T16:24:51.206Z,22.39
2022-09-07T16:27:23.219Z,22.32
2022-09-07T16:30:06.692Z,22.25
2022-09-07T16:33:12.376Z,22.22
2022-09-07T16:36:06.127Z,22.20
2022-09-07T16:38:51.837Z,22.14
2022-09-07T16:41:46.620Z,22.09
2022-09-07T16:46:02.632Z,22.06
2022-09-07T16:47:48.414Z,22.00
2022-09-07T16:50:31.095Z,21.95
2022-09-07T16:53:44.891Z,21.88
2022-09-07T16:56:44.259Z,21.82
2022-09-07T16:59:26.995Z,21.77
2022-09-07T17:02:16.825Z,21.68
2022-09-07T17:05:14.219Z,21.60
2022-09-07T17:07:58.857Z,21.51
2022-09-07T17:10:41.262Z,21.48
2022-09-07T17:13:33.527Z,21.43
2022-09-07T17:16:19.952Z,21.38
2022-09-07T17:19:29.743Z,21.33
2022-09-07T17:22:10.472Z,21.31
2022-09-07T17:24:49.483Z,21.30
2022-09-07T17:28:07.836Z,21.27
2022-09-07T17:35:01.183Z,21.16
2022-09-07T17:37:52.681Z,21.15
2022-09-07T17:40:47.112Z,21.10
2022-09-07T17:46:44.824Z,20.98
2022-09-07T17:49:56.771Z,20.88
2022-09-07T17:52:52.791Z,20.81
2022-09-07T17:55:59.552Z,20.79
2022-09-07T18:02:22.965Z,20.70
2022-09-07T18:04:58.144Z,20.64
2022-09-07T18:08:00.862Z,20.60
2022-09-07T18:13:35.014Z,20.46
2022-09-07T18:16:29.109Z,20.42
2022-09-07T18:19:07.700Z,20.35
2022-09-07T18:22:06.183Z,20.28
2022-09-07T18:25:33.999Z,20.23
2022-09-07T18:31:32.030Z,20.13
2022-09-07T18:34:04.897Z,20.09
2022-09-07T18:37:00.185Z,20.06
2022-09-07T18:39:35.614Z,20.05
2022-09-07T18:42:13.724Z,20.04
2022-09-07T18:47:40.579Z,19.99
2022-09-07T18:50:34.534Z,19.97
2022-09-07T18:53:30.905Z,19.92
2022-09-07T18:56:21.902Z,19.90
2022-09-07T18:59:16.668Z,19.87
2022-09-07T19:02:16.556Z,19.82
2022-09-07T19:08:06.784Z,19.76
2022-09-07T19:10:52.965Z,19.73
2022-09-07T19:13:27.928Z,19.71
2022-09-07T19:16:18.723Z,19.68
2022-09-07T19:19:03.595Z,19.65
2022-09-07T19:21:59.960Z,19.60
2022-09-07T19:24:32.015Z,19.53
2022-09-07T19:27:10.200Z,19.50
2022-09-07T19:29:52.689Z,19.51
2022-09-07T19:32:34.283Z,19.46
2022-09-07T19:35:05.539Z,19.37
2022-09-07T19:37:56.169Z,19.32
2022-09-07T19:40:30.322Z,19.24
2022-09-07T19:43:04.700Z,19.16
2022-09-07T19:45:37.902Z,19.11
2022-09-07T19:48:08.866Z,19.11
2022-09-07T19:50:55.461Z,19.12
2022-09-07T19:53:30.176Z,19.05
2022-09-07T19:56:11.930Z,18.96
2022-09-07T19:58:58.689Z,18.93
2022-09-07T20:01:36.020Z,18.83
2022-09-07T20:04:17.345Z,18.80
2022-09-07T20:06:56.890Z,18.77
2022-09-07T20:09:26.204Z,18.71
2022-09-07T20:12:07.487Z,18.65
2022-09-07T20:14:50.131Z,18.61
2022-09-07T20:17:24.739Z,18.59
2022-09-07T20:20:05.643Z,18.60
2022-09-07T20:22:49.336Z,18.58
2022-09-07T20:49:02.720Z,18.18
2022-09-07T20:56:17.248Z,18.09
2022-09-07T21:00:04.459Z,18.02
2022-09-07T21:03:18.936Z,17.95
2022-09-07T21:06:58.698Z,17.89
2022-09-07T21:10:38.590Z,17.85
2022-09-07T21:14:47.146Z,17.77
2022-09-07T21:18:37.406Z,17.69
2022-09-07T21:22:40.521Z,17.63
2022-09-07T21:26:35.510Z,17.55
2022-09-07T21:29:51.004Z,17.52
2022-09-07T21:33:34.294Z,17.48
2022-09-07T21:37:30.890Z,17.46
2022-09-07T21:41:31.357Z,17.43
2022-09-07T21:46:01.448Z,17.38
2022-09-07T21:50:00.830Z,17.31
2022-09-07T21:53:10.259Z,17.27
2022-09-07T21:57:41.691Z,17.22
2022-09-07T22:01:13.212Z,17.16
2022-09-07T22:04:33.773Z,17.11
2022-09-07T22:07:11.997Z,17.04
2022-09-07T22:10:09.132Z,17.01
2022-09-07T22:13:46.668Z,16.94
2022-09-07T22:16:57.360Z,16.89
2022-09-07T22:19:33.467Z,16.84
2022-09-07T22:22:19.164Z,16.80
2022-09-07T22:24:59.798Z,16.80
2022-09-07T22:28:06.014Z,16.76
2022-09-07T22:30:42.851Z,16.72
2022-09-07T22:33:46.671Z,16.68
2022-09-07T22:36:45.326Z,16.65
2022-09-07T22:39:23.664Z,16.65
2022-09-07T22:42:03.301Z,16.66
2022-09-07T22:45:04.406Z,16.62
2022-09-07T22:47:44.265Z,16.62
2022-09-07T22:50:57.690Z,16.63
2022-09-07T22:53:47.636Z,16.61
2022-09-07T22:56:57.307Z,16.61
2022-09-07T23:00:11.601Z,16.59
2022-09-07T23:03:23.322Z,16.56
2022-09-07T23:07:08.596Z,16.55
2022-09-07T23:10:31.148Z,16.49
2022-09-07T23:13:55.093Z,16.45
2022-09-07T23:17:15.247Z,16.41
2022-09-07T23:20:32.063Z,16.35
2022-09-07T23:23:13.754Z,16.30
2022-09-07T23:26:45.762Z,16.28
2022-09-07T23:29:37.303Z,16.22
2022-09-07T23:32:29.580Z,16.17
2022-09-07T23:35:27.463Z,16.13
2022-09-07T23:38:41.318Z,16.07
2022-09-07T23:41:37.934Z,16.02
2022-09-07T23:44:19.458Z,15.97
2022-09-07T23:47:03.028Z,15.94
2022-09-07T23:49:39.055Z,15.93
2022-09-07T23:52:44.374Z,15.88
2022-09-07T23:55:13.593Z,15.85
2022-09-07T23:57:47.052Z,15.80
